KSTK/STK METAR and TAF weather

Enter ICAO airport designator
Station Type Date Time Source
KSTK METAR 2019/04/23 03:50 UTC NOAA

KSTK 230350Z AUTO 33004KT 10SM CLR 05/02 A3024 RMK AO2


Station Type Date Time Source
KSTK Decoded METAR 2019/04/23 03:50 UTC NOAA

Station name not available
Apr 22, 2019 - 11:50 PM EDT / 2019.04.23 0350 UTC
Wind: from the NNW (330 degrees) at 5 MPH (4 KT):0
Visibility: 10 mile(s):0
Sky conditions: clear
Temperature: 41 F (5 C)
Dew Point: 35 F (2 C)
Relative Humidity: 80%
Pressure (altimeter): 30.24 in. Hg (1024 hPa)
ob: KSTK 230350Z AUTO 33004KT 10SM CLR 05/02 A3024 RMK AO2
cycle: 4

Station Type Date Time Source
KSTK TAF UTC NOAA

Error!

Example: see airport list